createdAt,value
2022-11-02T00:02:00.727Z,6.33347
2022-11-02T00:07:02.551Z,6.08512
2022-11-02T00:12:04.162Z,5.76658
2022-11-02T00:17:05.846Z,5.9511
2022-11-02T00:22:07.565Z,5.83264
2022-11-02T00:27:09.182Z,6.18897
2022-11-02T00:32:10.836Z,6.26964
2022-11-02T00:37:12.469Z,5.68306
2022-11-02T00:42:14.224Z,5.39724
2022-11-02T00:47:15.902Z,5.88218
2022-11-02T00:52:17.553Z,5.83296
2022-11-02T00:57:19.258Z,5.2918
2022-11-02T01:02:21.006Z,5.7885
2022-11-02T01:07:22.852Z,5.27465
2022-11-02T01:12:24.450Z,5.48838
2022-11-02T01:17:26.063Z,5.39184
2022-11-02T01:22:27.654Z,5.63955
2022-11-02T01:27:29.322Z,5.49918
2022-11-02T01:32:30.922Z,5.73324
2022-11-02T01:37:32.545Z,5.21177
2022-11-02T01:42:34.160Z,5.38834
2022-11-02T01:47:35.789Z,5.76277
2022-11-02T01:52:37.481Z,5.89139
2022-11-02T01:57:39.122Z,5.81105
2022-11-02T02:02:40.879Z,5.88949
2022-11-02T02:07:42.585Z,5.52459
2022-11-02T02:12:44.196Z,5.46202
2022-11-02T02:17:45.831Z,5.20986
2022-11-02T02:22:47.449Z,5.20097
2022-11-02T02:27:49.056Z,5.6224
2022-11-02T02:32:50.632Z,5.56079
2022-11-02T02:37:52.261Z,5.3604
2022-11-02T02:42:53.910Z,5.26512
2022-11-02T02:47:55.730Z,5.40581
2022-11-02T02:52:57.335Z,5.27751
2022-11-02T02:57:58.944Z,5.19176
2022-11-02T03:03:00.546Z,5.28799
2022-11-02T03:08:02.513Z,5.52395
2022-11-02T03:13:04.418Z,5.4309
2022-11-02T03:18:06.722Z,5.0371
2022-11-02T03:23:08.649Z,5.14698
2022-11-02T03:28:10.971Z,5.32959
2022-11-02T03:33:12.594Z,5.49219
2022-11-02T03:38:14.246Z,5.04028
2022-11-02T03:43:15.909Z,5.26925
2022-11-02T03:48:17.504Z,5.18986
2022-11-02T03:53:19.116Z,5.18509
2022-11-02T03:58:20.753Z,5.23146
2022-11-02T04:03:22.509Z,5.48013
2022-11-02T04:08:24.249Z,5.16826
2022-11-02T04:13:25.906Z,5.31117
2022-11-02T04:18:27.492Z,5.14635
2022-11-02T04:23:29.120Z,5.2683
2022-11-02T04:28:30.737Z,4.78272
2022-11-02T04:33:32.342Z,4.62901
2022-11-02T04:38:39.119Z,5.05266
2022-11-02T04:43:40.986Z,5.37691
2022-11-02T04:48:42.574Z,4.95326
2022-11-02T04:53:44.240Z,4.85544
2022-11-02T04:58:45.912Z,4.68998
2022-11-02T05:03:47.507Z,4.91197
2022-11-02T05:08:49.105Z,4.96564
2022-11-02T05:13:50.696Z,4.98216
2022-11-02T05:18:52.309Z,5.14158
2022-11-02T05:23:53.908Z,5.00852
2022-11-02T05:28:55.569Z,5.1257
2022-11-02T05:33:57.195Z,5.02313
2022-11-02T05:38:58.797Z,4.94532
2022-11-02T05:44:00.470Z,4.50897
2022-11-02T05:49:02.172Z,4.89387
2022-11-02T05:54:03.753Z,4.74366
2022-11-02T05:59:05.429Z,4.83226
2022-11-02T06:04:07.170Z,5.09522
2022-11-02T06:09:08.844Z,5.03551
2022-11-02T06:14:10.530Z,4.48388
2022-11-02T06:19:12.237Z,4.24855
2022-11-02T06:24:13.855Z,3.92558
2022-11-02T06:29:15.514Z,3.94812
2022-11-02T06:34:17.094Z,4.25077
2022-11-02T06:39:18.669Z,4.93325
2022-11-02T06:44:20.258Z,4.76239
2022-11-02T06:49:21.835Z,4.73826
2022-11-02T06:54:23.456Z,4.59185
2022-11-02T06:59:25.119Z,4.29301
2022-11-02T07:04:26.738Z,4.77795
2022-11-02T07:09:28.344Z,4.80082
2022-11-02T07:14:29.941Z,4.54771
2022-11-02T07:19:31.617Z,4.47244
2022-11-02T07:24:33.230Z,4.54009
2022-11-02T07:29:34.924Z,4.25681
2022-11-02T07:34:36.564Z,4.6668
2022-11-02T07:39:38.191Z,4.26443
2022-11-02T07:44:39.754Z,4.18726
2022-11-02T07:49:41.426Z,4.42576
2022-11-02T07:54:44.757Z,4.49182
2022-11-02T07:59:46.825Z,4.34192
2022-11-02T08:04:48.569Z,4.31397
2022-11-02T08:09:50.166Z,4.51945
2022-11-02T08:14:51.748Z,4.31334
2022-11-02T08:19:53.709Z,4.59948
2022-11-02T08:24:55.390Z,4.44513
2022-11-02T08:29:56.993Z,4.26316
2022-11-02T08:34:59.218Z,4.39495
2022-11-02T08:40:00.887Z,3.77409
2022-11-02T08:45:02.516Z,3.63214
2022-11-02T08:50:04.125Z,3.74551
2022-11-02T08:55:05.736Z,3.62007
2022-11-02T09:00:07.452Z,3.87381
2022-11-02T09:05:09.048Z,3.7074
2022-11-02T09:10:10.674Z,3.59498
2022-11-02T09:15:12.290Z,3.95956
2022-11-02T09:20:13.928Z,3.80077
2022-11-02T09:25:15.588Z,3.54353
2022-11-02T09:30:17.237Z,3.90779
2022-11-02T09:35:18.859Z,2.85789
2022-11-02T09:40:20.485Z,3.05923
2022-11-02T09:45:22.255Z,3.62261
2022-11-02T09:50:23.923Z,3.83094
2022-11-02T09:55:25.679Z,3.87191
2022-11-02T10:00:27.289Z,3.39268
2022-11-02T10:05:28.937Z,3.60324
2022-11-02T10:10:30.573Z,3.08019
2022-11-02T10:15:32.162Z,3.71343
2022-11-02T10:20:33.974Z,3.79886
2022-11-02T10:25:35.668Z,3.33647
2022-11-02T10:30:37.279Z,3.83602
2022-11-02T10:35:57.783Z,3.64674
2022-11-02T10:41:13.982Z,3.54099
2022-11-02T10:46:15.614Z,3.77727
2022-11-02T10:51:17.219Z,3.92462
2022-11-02T10:56:18.862Z,3.84967
2022-11-02T11:01:20.699Z,3.9802
2022-11-02T11:06:22.398Z,3.80998
2022-11-02T11:11:24.122Z,4.05991
2022-11-02T11:16:26.596Z,3.68835
2022-11-02T11:21:28.249Z,3.78457
2022-11-02T11:26:29.865Z,3.77155
2022-11-02T11:31:31.611Z,3.56957
2022-11-02T11:36:33.285Z,3.61403
2022-11-02T11:41:34.939Z,3.68358
2022-11-02T11:46:36.543Z,3.23421
2022-11-02T11:51:38.178Z,3.61181
2022-11-02T11:56:39.879Z,3.32568
2022-11-02T12:01:41.584Z,3.3333
2022-11-02T12:06:43.259Z,3.71629
2022-11-02T12:11:45.315Z,3.58005
2022-11-02T12:16:46.939Z,3.75663
2022-11-02T12:21:48.574Z,3.6947
2022-11-02T12:26:50.261Z,3.27423
2022-11-02T12:31:54.531Z,3.55973
2022-11-02T12:37:27.423Z,3.55655
2022-11-02T12:42:39.228Z,3.40221
2022-11-02T12:47:44.596Z,3.11354
2022-11-02T12:52:46.276Z,3.29582
2022-11-02T12:57:47.941Z,3.54353
2022-11-02T13:02:49.575Z,3.36442
2022-11-02T13:07:51.234Z,3.21071
2022-11-02T13:12:52.949Z,3.33743
2022-11-02T13:17:54.631Z,3.19325
2022-11-02T13:22:56.375Z,3.03922
2022-11-02T13:28:02.690Z,2.99222
2022-11-02T13:33:07.665Z,2.99953
2022-11-02T13:38:09.579Z,2.85821
2022-11-02T13:43:11.235Z,3.08781
2022-11-02T13:48:12.865Z,3.0659
2022-11-02T13:53:14.497Z,2.92998
2022-11-02T13:58:16.110Z,2.70101
2022-11-02T14:03:17.692Z,2.60193
2022-11-02T14:08:19.298Z,2.74356
2022-11-02T14:13:20.861Z,2.68354
2022-11-02T14:18:22.459Z,2.69879
2022-11-02T14:23:24.065Z,2.6051
2022-11-02T14:28:25.639Z,2.51174
2022-11-02T14:33:27.224Z,2.75944
2022-11-02T14:38:28.995Z,2.53778
2022-11-02T14:43:30.594Z,2.6756
2022-11-02T14:48:32.359Z,2.59748
2022-11-02T14:53:34.013Z,2.48887
2022-11-02T14:58:35.607Z,2.39424
2022-11-02T15:03:37.298Z,2.5165
2022-11-02T15:08:38.912Z,2.65655
2022-11-02T15:13:40.757Z,3.31011
2022-11-02T15:18:42.516Z,2.96841
2022-11-02T15:28:45.941Z,2.89886
2022-11-02T15:33:47.578Z,2.37423
2022-11-02T15:38:49.202Z,2.63781
2022-11-02T15:43:50.850Z,2.48125
2022-11-02T15:48:52.491Z,2.46887
2022-11-02T15:53:54.083Z,2.94141
2022-11-02T15:58:55.740Z,1.98838
2022-11-02T16:03:58.570Z,2.6845
2022-11-02T16:09:00.690Z,2.82899
2022-11-02T16:14:09.026Z,3.21357
2022-11-02T16:19:11.186Z,3.50384
2022-11-02T16:24:12.879Z,3.53305
2022-11-02T16:29:14.517Z,3.30059
2022-11-02T16:34:16.302Z,3.93796
2022-11-02T16:39:17.901Z,3.70359
2022-11-02T16:44:19.522Z,3.58768
2022-11-02T16:49:21.127Z,3.86714
2022-11-02T16:54:22.710Z,3.89128
2022-11-02T16:59:24.361Z,3.85158
2022-11-02T17:04:26.053Z,4.47975
2022-11-02T17:09:27.666Z,4.63917
2022-11-02T17:14:29.259Z,4.53405
2022-11-02T17:19:30.896Z,4.63536
2022-11-02T17:24:32.668Z,4.57153
2022-11-02T17:29:34.299Z,5.45535
2022-11-02T17:34:36.126Z,5.79675
2022-11-02T17:39:37.777Z,6.49004
2022-11-02T17:44:39.878Z,5.46456
2022-11-02T17:49:41.628Z,5.90092
2022-11-02T17:54:43.277Z,5.53793
2022-11-02T17:59:44.944Z,5.84916
2022-11-02T18:04:47.151Z,6.07845
2022-11-02T18:09:49.026Z,5.78786
2022-11-02T18:14:50.678Z,5.34229
2022-11-02T18:19:52.283Z,5.56905
2022-11-02T18:24:53.940Z,6.42049
2022-11-02T18:29:55.517Z,6.10418
2022-11-02T18:34:57.092Z,6.45606
2022-11-02T18:39:58.709Z,6.15626
2022-11-02T18:45:00.345Z,6.25058
2022-11-02T18:50:01.949Z,6.69139
2022-11-02T18:55:03.588Z,6.4694
2022-11-02T19:00:05.248Z,6.48051
2022-11-02T19:05:06.897Z,5.92188
2022-11-02T19:10:08.480Z,5.98603
2022-11-02T19:15:10.158Z,6.23724
2022-11-02T19:20:11.761Z,6.55324
2022-11-02T19:25:13.379Z,6.78063
2022-11-02T19:30:14.979Z,6.53133
2022-11-02T19:35:16.587Z,6.05686
2022-11-02T19:40:18.263Z,6.67265
2022-11-02T19:45:19.870Z,6.81588
2022-11-02T19:50:21.733Z,6.04383
2022-11-02T19:55:23.519Z,6.01557
2022-11-02T20:00:25.097Z,5.61065
2022-11-02T20:05:26.677Z,5.53538
2022-11-02T20:10:28.288Z,4.75985
2022-11-02T20:15:29.900Z,5.27687
2022-11-02T20:20:31.478Z,5.15143
2022-11-02T20:25:33.142Z,5.01011
2022-11-02T20:30:34.744Z,4.80908
2022-11-02T20:35:36.333Z,4.84242
2022-11-02T20:40:41.081Z,4.59662
2022-11-02T20:45:43.121Z,5.43344
2022-11-02T20:50:44.715Z,4.86878
2022-11-02T20:55:46.395Z,4.6379
2022-11-02T21:00:48.089Z,4.51881
2022-11-02T21:05:49.758Z,4.54453
2022-11-02T21:10:51.600Z,4.61885
2022-11-02T21:15:54.336Z,4.31874
2022-11-02T21:20:55.881Z,4.44418
2022-11-02T21:25:57.478Z,4.9288
2022-11-02T21:30:59.094Z,4.636
2022-11-02T21:36:00.743Z,5.16508
2022-11-02T21:41:02.351Z,4.74048
2022-11-02T21:46:03.997Z,4.9323
2022-11-02T21:51:05.811Z,5.16127
2022-11-02T21:56:07.405Z,5.49124
2022-11-02T22:01:09.143Z,5.32864
2022-11-02T22:06:10.840Z,5.40327
2022-11-02T22:11:12.426Z,5.84439
2022-11-02T22:16:14.017Z,6.12672
2022-11-02T22:21:15.651Z,5.78437
2022-11-02T22:26:17.466Z,5.44265
2022-11-02T22:31:19.119Z,6.09687
2022-11-02T22:36:20.815Z,5.95618
2022-11-02T22:41:22.464Z,6.14102
2022-11-02T22:46:24.075Z,6.38619
2022-11-02T22:51:25.720Z,5.93459
2022-11-02T22:56:27.386Z,6.47321
2022-11-02T23:01:29.159Z,6.69298
2022-11-02T23:06:30.899Z,6.72061
2022-11-02T23:11:32.504Z,6.67234
2022-11-02T23:16:34.213Z,6.62184
2022-11-02T23:21:35.806Z,7.10711
2022-11-02T23:26:37.484Z,6.76634
2022-11-02T23:31:39.119Z,6.52085
2022-11-02T23:36:40.763Z,6.60215
2022-11-02T23:41:42.515Z,6.87178
2022-11-02T23:46:44.200Z,6.84764
2022-11-02T23:51:45.792Z,6.67583
2022-11-02T23:56:47.433Z,6.99437
